Time;durP1;ratioP1;P1;durP2;ratioP2;P2;SDS_P1;SDS_P2;PMS_P1;PMS_P2;Temp;Humidity;BMP_temperature;BMP_pressure;BME280_temperature;BME280_humidity;BME280_pressure;Samples;Min_cycle;Max_cycle;Signal;HPM_P1;HPM_P2
2023/10/07 00:00:59;;;;;;;0.03;0.03;;;9.00;99.90;;;;;;5082115;28;20124;-75
2023/10/07 00:03:31;;;;;;;2.15;2.05;;;8.80;99.90;;;;;;5093464;28;20035;-75
2023/10/07 00:06:02;;;;;;;0.43;0.43;;;9.00;99.90;;;;;;5092538;28;20035;-75
2023/10/07 00:08:29;;;;;;;0.00;0.00;;;9.00;99.90;;;;;;5094554;28;20032;-75
2023/10/07 00:10:59;;;;;;;0.00;0.00;;;8.10;99.90;;;;;;5088950;28;20552;-75
2023/10/07 00:13:40;;;;;;;0.05;0.05;;;8.90;99.90;;;;;;5090836;28;20017;-75
2023/10/07 00:16:07;;;;;;;0.10;0.10;;;8.90;99.90;;;;;;5099883;28;20668;-75
2023/10/07 00:18:35;;;;;;;0.00;0.00;;;8.90;99.90;;;;;;5098720;28;20135;-76
2023/10/07 00:21:02;;;;;;;0.00;0.00;;;8.80;99.90;;;;;;5090738;28;20029;-75
2023/10/07 00:23:28;;;;;;;0.10;0.10;;;8.90;99.90;;;;;;5095696;28;20584;-75
2023/10/07 00:25:58;;;;;;;0.00;0.00;;;8.90;99.90;;;;;;5084539;28;20060;-75
2023/10/07 00:28:32;;;;;;;0.00;0.00;;;12.00;99.90;;;;;;5095267;28;20021;-74
2023/10/07 00:31:12;;;;;;;0.08;0.08;;;8.80;99.90;;;;;;5092041;28;20110;-75
2023/10/07 00:33:50;;;;;;;0.10;0.10;;;8.80;99.90;;;;;;5086698;28;20078;-75
2023/10/07 00:39:07;;;;;;;0.00;0.00;;;8.80;99.90;;;;;;5087561;28;20016;-75
2023/10/07 00:41:45;;;;;;;0.05;0.05;;;8.80;99.90;;;;;;5069420;28;20071;-75
2023/10/07 00:44:22;;;;;;;0.05;0.05;;;8.80;99.90;;;;;;5066452;28;20448;-75
2023/10/07 00:49:50;;;;;;;0.08;0.08;;;8.90;99.90;;;;;;5084153;28;20032;-75
2023/10/07 00:52:32;;;;;;;1.75;1.65;;;9.00;99.90;;;;;;5098627;28;20031;-75
2023/10/07 01:03:12;;;;;;;0.10;0.10;;;9.00;99.90;;;;;;5094360;28;20035;-74
2023/10/07 01:06:06;;;;;;;2.10;2.00;;;8.90;99.90;;;;;;5093142;28;20080;-75
2023/10/07 01:11:26;;;;;;;0.00;0.00;;;9.30;99.90;;;;;;5098427;28;20091;-74
2023/10/07 01:13:56;;;;;;;0.32;0.32;;;8.70;99.90;;;;;;5083463;28;20067;-75
2023/10/07 01:19:27;;;;;;;0.00;0.00;;;8.60;99.90;;;;;;5054002;28;20033;-75
2023/10/07 01:21:55;;;;;;;0.00;0.00;;;8.60;99.90;;;;;;5043744;28;20041;-75
2023/10/07 01:27:16;;;;;;;0.00;0.00;;;;;;;;;;5052126;28;20041;-75
2023/10/07 01:30:26;;;;;;;0.00;0.00;;;8.40;99.90;;;;;;5056475;28;20033;-74
2023/10/07 01:32:48;;;;;;;0.00;0.00;;;8.40;99.90;;;;;;5022172;28;20045;-75
2023/10/07 01:35:24;;;;;;;0.00;0.00;;;8.30;99.90;;;;;;5043542;28;20253;-75
2023/10/07 01:37:59;;;;;;;0.00;0.00;;;8.30;99.90;;;;;;5039504;28;20064;-75
2023/10/07 01:40:33;;;;;;;0.00;0.00;;;8.20;99.90;;;;;;5053329;28;20051;-75
2023/10/07 01:43:02;;;;;;;0.10;0.10;;;8.20;99.90;;;;;;5054881;28;20527;-74
2023/10/07 01:45:34;;;;;;;0.00;0.00;;;8.30;99.90;;;;;;5055214;28;20059;-74
2023/10/07 01:48:07;;;;;;;0.10;0.10;;;8.20;99.90;;;;;;5034483;28;20029;-75
2023/10/07 01:50:37;;;;;;;0.00;0.00;;;8.20;99.90;;;;;;5028649;28;20271;-75
2023/10/07 01:53:04;;;;;;;0.00;0.00;;;8.20;99.90;;;;;;5028431;28;20017;-75
2023/10/07 01:55:45;;;;;;;0.00;0.00;;;5.30;99.90;;;;;;5053794;28;20044;-75
2023/10/07 01:58:15;;;;;;;0.00;0.00;;;8.10;99.90;;;;;;5076379;28;20043;-75
2023/10/07 02:00:59;;;;;;;0.00;0.00;;;;;;;;;;5093335;28;20058;-74
2023/10/07 02:03:29;;;;;;;0.00;0.00;;;8.10;99.90;;;;;;5098029;28;20340;-75
2023/10/07 02:05:55;;;;;;;0.00;0.00;;;8.10;99.90;;;;;;5092295;28;20502;-75
2023/10/07 02:08:23;;;;;;;0.00;0.00;;;8.00;99.90;;;;;;5102013;28;20035;-75
2023/10/07 02:10:58;;;;;;;0.00;0.00;;;8.60;99.90;;;;;;5100724;28;20032;-75
2023/10/07 02:13:49;;;;;;;0.00;0.00;;;8.00;99.90;;;;;;5102769;28;20043;-75
2023/10/07 02:16:16;;;;;;;0.03;0.03;;;8.00;99.90;;;;;;5085804;28;20039;-75
2023/10/07 02:18:44;;;;;;;0.00;0.00;;;7.00;99.90;;;;;;5104929;28;20028;-75
2023/10/07 02:21:20;;;;;;;0.00;0.00;;;8.00;99.90;;;;;;5102518;28;20016;-75
2023/10/07 02:23:53;;;;;;;0.00;0.00;;;8.00;99.90;;;;;;5084678;28;20020;-75
2023/10/07 02:26:19;;;;;;;0.00;0.00;;;8.00;99.90;;;;;;5098926;28;20028;-76
2023/10/07 02:28:53;;;;;;;0.00;0.00;;;8.10;99.90;;;;;;5082494;28;20019;-74
2023/10/07 02:31:24;;;;;;;0.00;0.00;;;8.20;99.90;;;;;;5101186;28;20039;-75
2023/10/07 02:33:57;;;;;;;0.00;0.00;;;8.10;99.90;;;;;;5100287;28;20027;-75
2023/10/07 02:36:36;;;;;;;0.10;0.10;;;8.10;99.90;;;;;;5081339;28;20092;-74
2023/10/07 02:42:08;;;;;;;0.00;0.00;;;8.10;99.90;;;;;;5004582;28;20086;-75
2023/10/07 02:44:36;;;;;;;0.00;0.00;;;8.00;99.90;;;;;;5003736;28;20164;-75
2023/10/07 02:47:11;;;;;;;0.00;0.00;;;;;;;;;;5003627;28;20547;-75
2023/10/07 02:49:39;;;;;;;0.10;0.10;;;8.00;99.90;;;;;;5003805;28;20038;-75
2023/10/07 02:52:06;;;;;;;0.00;0.00;;;8.10;99.90;;;;;;5006160;28;20022;-75
2023/10/07 02:54:33;;;;;;;0.00;0.00;;;7.90;99.90;;;;;;5016026;28;20048;-75
2023/10/07 02:57:08;;;;;;;0.00;0.00;;;7.80;99.90;;;;;;5013310;28;20077;-75
2023/10/07 02:59:36;;;;;;;0.00;0.00;;;7.80;99.90;;;;;;4993174;28;20026;-75
2023/10/07 03:02:12;;;;;;;0.00;0.00;;;7.70;99.90;;;;;;5006925;28;20089;-75
2023/10/07 03:04:43;;;;;;;0.10;0.10;;;7.70;99.90;;;;;;5008184;28;20033;-75
2023/10/07 03:07:15;;;;;;;0.00;0.00;;;7.70;99.90;;;;;;5008630;28;20029;-75
2023/10/07 03:09:52;;;;;;;0.00;0.00;;;7.60;99.90;;;;;;5007929;28;20248;-75
2023/10/07 03:12:27;;;;;;;0.00;0.00;;;7.30;99.90;;;;;;5009689;28;20022;-75
2023/10/07 03:14:57;;;;;;;0.00;0.00;;;7.60;99.90;;;;;;4992025;28;20171;-75
2023/10/07 03:17:33;;;;;;;0.10;0.10;;;;;;;;;;5074127;28;20016;-75
2023/10/07 03:20:23;;;;;;;0.00;0.00;;;7.60;99.90;;;;;;5092016;28;20116;-75
2023/10/07 03:23:10;;;;;;;0.00;0.00;;;7.60;99.90;;;;;;5097483;28;20035;-75
2023/10/07 03:28:22;;;;;;;0.00;0.00;;;7.60;99.90;;;;;;5098760;28;20031;-75
2023/10/07 03:30:55;;;;;;;9.43;6.72;;;7.70;99.90;;;;;;5085762;28;20048;-74
2023/10/07 03:33:51;;;;;;;0.10;0.10;;;7.70;99.90;;;;;;5092731;28;20008;-75
2023/10/07 03:41:51;;;;;;;0.00;0.00;;;7.60;99.90;;;;;;5003652;28;20037;-75
2023/10/07 03:44:19;;;;;;;0.00;0.00;;;7.50;99.90;;;;;;5003346;28;20303;-75
2023/10/07 03:46:48;;;;;;;0.00;0.00;;;7.50;99.90;;;;;;5001973;28;20025;-75
2023/10/07 03:49:16;;;;;;;0.10;0.10;;;7.40;99.90;;;;;;5002963;28;20504;-75
2023/10/07 03:52:07;;;;;;;0.00;0.00;;;7.40;99.90;;;;;;5002792;28;20042;-74
2023/10/07 03:54:40;;;;;;;0.00;0.00;;;7.50;99.90;;;;;;4986900;28;20696;-75
2023/10/07 03:57:07;;;;;;;0.00;0.00;;;7.50;99.90;;;;;;5002494;28;20026;-76
2023/10/07 03:59:39;;;;;;;0.00;0.00;;;7.40;99.90;;;;;;5000349;28;20038;-75
2023/10/07 04:05:00;;;;;;;0.00;0.00;;;7.20;99.90;;;;;;4998091;28;20076;-74
2023/10/07 04:07:33;;;;;;;0.03;0.03;;;7.10;99.90;;;;;;5003984;28;20030;-75
2023/10/07 04:10:20;;;;;;;0.00;0.00;;;7.10;99.90;;;;;;5004371;28;20034;-75
2023/10/07 04:12:58;;;;;;;0.00;0.00;;;7.00;99.90;;;;;;5005183;28;20403;-75
2023/10/07 04:15:34;;;;;;;0.00;0.00;;;6.90;99.90;;;;;;5014717;28;20045;-75
2023/10/07 04:18:02;;;;;;;0.00;0.00;;;7.00;99.90;;;;;;5043973;28;20062;-75
2023/10/07 04:20:50;;;;;;;0.00;0.00;;;7.00;99.90;;;;;;5084348;28;20330;-75
2023/10/07 04:23:24;;;;;;;0.10;0.10;;;7.00;99.90;;;;;;5091064;28;20059;-74
2023/10/07 04:26:19;;;;;;;0.00;0.00;;;7.00;99.90;;;;;;5087972;28;20028;-74
2023/10/07 04:28:53;;;;;;;0.00;0.00;;;7.00;99.90;;;;;;5089640;28;20023;-75
2023/10/07 04:31:29;;;;;;;0.10;0.10;;;6.90;99.90;;;;;;5086346;28;20067;-74
2023/10/07 04:33:55;;;;;;;0.00;0.00;;;6.90;99.90;;;;;;5086928;28;20016;-75
2023/10/07 04:36:54;;;;;;;0.00;0.00;;;6.90;99.90;;;;;;5075380;28;20089;-75
2023/10/07 04:39:18;;;;;;;0.00;0.00;;;6.90;99.90;;;;;;5081840;28;20070;-75
2023/10/07 04:41:57;;;;;;;0.00;0.00;;;6.80;99.90;;;;;;5096436;28;20016;-74
2023/10/07 04:50:13;;;;;;;0.00;0.00;;;6.80;99.90;;;;;;5023128;28;20121;-74
2023/10/07 04:52:50;;;;;;;0.15;0.15;;;;;;;;;;5023213;28;20107;-75
2023/10/07 04:55:27;;;;;;;2.50;2.45;;;6.70;99.90;;;;;;5023023;28;20034;-75
2023/10/07 05:03:01;;;;;;;0.00;0.00;;;6.70;99.90;;;;;;5020535;28;20231;-75
2023/10/07 05:05:33;;;;;;;0.00;0.00;;;6.80;99.90;;;;;;5006455;28;20141;-75
2023/10/07 05:08:22;;;;;;;0.65;0.65;;;6.80;99.90;;;;;;5021735;28;20420;-75
2023/10/07 05:11:06;;;;;;;0.00;0.00;;;6.80;99.90;;;;;;5016755;28;20025;-75
2023/10/07 05:13:35;;;;;;;2.33;2.22;;;6.80;99.90;;;;;;5012303;28;20101;-75
2023/10/07 05:16:08;;;;;;;0.00;0.00;;;6.80;99.90;;;;;;5022808;28;20049;-75
2023/10/07 05:18:52;;;;;;;0.00;0.00;;;6.90;99.90;;;;;;5003810;28;20034;-75
2023/10/07 05:21:21;;;;;;;0.00;0.00;;;6.80;99.90;;;;;;5012122;28;20551;-75
2023/10/07 05:23:53;;;;;;;0.00;0.00;;;6.90;99.90;;;;;;5027582;28;20036;-75
2023/10/07 05:26:19;;;;;;;0.00;0.00;;;6.90;99.90;;;;;;5067987;28;20032;-75
2023/10/07 05:28:45;;;;;;;10.38;9.70;;;6.90;99.90;;;;;;5091044;28;20020;-74
2023/10/07 05:31:14;;;;;;;0.00;0.00;;;6.80;99.90;;;;;;5089820;28;20044;-75
2023/10/07 05:33:42;;;;;;;0.00;0.00;;;6.80;99.90;;;;;;5071031;28;20027;-75
2023/10/07 05:36:14;;;;;;;0.00;0.00;;;6.80;99.90;;;;;;5086154;28;20112;-75
2023/10/07 05:38:50;;;;;;;0.10;0.10;;;6.80;99.90;;;;;;5098983;28;20490;-75
2023/10/07 05:41:28;;;;;;;0.00;0.00;;;6.90;99.90;;;;;;5098745;28;20498;-75
2023/10/07 05:43:55;;;;;;;0.00;0.00;;;6.90;99.90;;;;;;5086312;28;20517;-75
2023/10/07 05:46:21;;;;;;;0.00;0.00;;;7.00;99.90;;;;;;5094225;28;20016;-75
2023/10/07 05:48:54;;;;;;;0.00;0.00;;;7.10;99.90;;;;;;5091533;28;20056;-74
2023/10/07 05:51:25;;;;;;;0.00;0.00;;;7.10;99.90;;;;;;5096116;28;20036;-75
2023/10/07 05:53:52;;;;;;;0.00;0.00;;;7.80;99.90;;;;;;5100558;28;20035;-75
2023/10/07 05:56:19;;;;;;;0.00;0.00;;;7.30;99.90;;;;;;5092947;28;20063;-75
2023/10/07 05:58:48;;;;;;;0.00;0.00;;;7.40;99.90;;;;;;5094179;28;20339;-76
2023/10/07 06:01:18;;;;;;;0.10;0.10;;;7.40;99.90;;;;;;5094233;28;20020;-75
2023/10/07 06:03:46;;;;;;;0.00;0.00;;;7.60;99.90;;;;;;5090376;28;20217;-75
2023/10/07 06:06:14;;;;;;;0.10;0.10;;;7.70;99.90;;;;;;5102103;28;20209;-75
2023/10/07 06:08:50;;;;;;;0.00;0.00;;;7.70;99.90;;;;;;5092808;28;20032;-75
2023/10/07 06:11:17;;;;;;;0.03;0.03;;;7.80;99.90;;;;;;5085079;28;20304;-75
2023/10/07 06:13:44;;;;;;;0.00;0.00;;;7.90;99.90;;;;;;5078776;28;20100;-75
2023/10/07 06:16:13;;;;;;;0.32;0.32;;;8.10;99.90;;;;;;5099306;28;20309;-75
2023/10/07 06:18:49;;;;;;;0.00;0.00;;;8.20;99.90;;;;;;5097846;28;20115;-75
2023/10/07 06:21:27;;;;;;;0.10;0.10;;;8.40;99.90;;;;;;5081587;28;20131;-75
2023/10/07 06:24:07;;;;;;;0.10;0.10;;;8.40;99.90;;;;;;5095552;28;20020;-74
2023/10/07 06:26:36;;;;;;;0.00;0.00;;;8.50;99.90;;;;;;5100925;28;20224;-75
2023/10/07 06:29:18;;;;;;;0.10;0.10;;;8.70;99.90;;;;;;5100340;28;20032;-75
2023/10/07 06:32:12;;;;;;;0.08;0.08;;;8.80;99.90;;;;;;5075009;28;20044;-75
2023/10/07 06:34:41;;;;;;;0.00;0.00;;;;;;;;;;5074161;28;20208;-76
2023/10/07 06:37:33;;;;;;;0.20;0.20;;;8.90;99.90;;;;;;5097332;28;20018;-75
2023/10/07 06:40:00;;;;;;;0.00;0.00;;;9.00;99.90;;;;;;5090830;28;20479;-75
2023/10/07 06:42:29;;;;;;;0.10;0.10;;;9.20;99.90;;;;;;5091812;28;20043;-76
2023/10/07 06:44:56;;;;;;;0.10;0.10;;;;;;;;;;5085155;28;20020;-75
2023/10/07 06:47:23;;;;;;;0.10;0.10;;;9.40;99.90;;;;;;5078100;28;20020;-76
2023/10/07 06:49:52;;;;;;;0.10;0.10;;;9.40;99.90;;;;;;5056795;28;20466;-75
2023/10/07 06:52:20;;;;;;;0.00;0.00;;;9.20;99.90;;;;;;5052236;28;20033;-76
2023/10/07 06:54:54;;;;;;;0.10;0.10;;;9.40;99.90;;;;;;5052742;28;20052;-75
2023/10/07 06:57:29;;;;;;;0.00;0.00;;;9.50;99.90;;;;;;5052199;28;20017;-76
2023/10/07 06:59:58;;;;;;;0.10;0.10;;;9.50;99.90;;;;;;5047596;28;20112;-75
2023/10/07 07:02:53;;;;;;;0.10;0.10;;;10.20;99.90;;;;;;5045810;28;20021;-75
2023/10/07 07:05:28;;;;;;;0.10;0.10;;;9.80;99.90;;;;;;5046605;28;20060;-75
2023/10/07 07:07:54;;;;;;;0.10;0.10;;;9.70;99.90;;;;;;5054122;28;20048;-75
2023/10/07 07:10:30;;;;;;;0.10;0.10;;;9.80;99.90;;;;;;5047854;28;20107;-75
2023/10/07 07:13:03;;;;;;;0.10;0.10;;;10.30;99.90;;;;;;5055693;28;20051;-76
2023/10/07 07:15:36;;;;;;;0.10;0.10;;;10.00;99.90;;;;;;5045739;28;20080;-76
2023/10/07 07:18:16;;;;;;;0.10;0.10;;;10.20;99.90;;;;;;5045879;28;20208;-75
2023/10/07 07:20:49;;;;;;;0.08;0.08;;;10.40;99.90;;;;;;5074281;28;20036;-75
2023/10/07 07:23:24;;;;;;;0.15;0.15;;;10.80;99.90;;;;;;5093153;28;20081;-75
2023/10/07 07:28:35;;;;;;;0.10;0.10;;;10.90;99.90;;;;;;5094474;28;20054;-76
2023/10/07 07:31:18;;;;;;;0.10;0.10;;;11.10;99.90;;;;;;5092855;28;20067;-76
2023/10/07 07:33:51;;;;;;;0.20;0.20;;;13.20;99.90;;;;;;5090589;28;20493;-76
2023/10/07 07:36:38;;;;;;;0.10;0.10;;;11.20;99.90;;;;;;5076321;28;20036;-76
2023/10/07 07:39:09;;;;;;;0.52;0.50;;;11.30;99.90;;;;;;5094961;28;20481;-76
2023/10/07 07:41:55;;;;;;;0.10;0.10;;;11.40;99.90;;;;;;5071139;28;20032;-76
2023/10/07 07:44:32;;;;;;;0.20;0.20;;;11.60;99.90;;;;;;5069518;28;20448;-75
2023/10/07 07:47:17;;;;;;;0.20;0.20;;;11.70;99.90;;;;;;5092110;28;20035;-75
2023/10/07 07:49:43;;;;;;;0.20;0.20;;;11.90;99.90;;;;;;5094935;28;20075;-75
2023/10/07 07:52:19;;;;;;;0.10;0.10;;;12.00;99.90;;;;;;5090185;28;20470;-75
2023/10/07 07:54:45;;;;;;;0.20;0.20;;;10.90;99.90;;;;;;5070672;28;20256;-75
2023/10/07 07:57:12;;;;;;;0.10;0.10;;;10.30;99.90;;;;;;5069524;28;20027;-75
2023/10/07 07:59:49;;;;;;;0.82;0.82;;;12.20;99.90;;;;;;5070577;28;20116;-75
2023/10/07 08:02:24;;;;;;;0.10;0.10;;;12.30;99.90;;;;;;5088808;28;20020;-76
2023/10/07 08:05:02;;;;;;;0.10;0.10;;;12.50;99.90;;;;;;5088635;28;20024;-79
2023/10/07 08:07:30;;;;;;;0.75;0.75;;;12.60;99.90;;;;;;5074160;28;20021;-75
2023/10/07 08:10:03;;;;;;;0.57;0.57;;;12.60;99.90;;;;;;5095906;28;20024;-76
2023/10/07 08:12:31;;;;;;;;;;;12.80;99.90;;;;;;5092811;28;20085;-75
2023/10/07 08:17:43;;;;;;;0.10;0.10;;;12.90;99.90;;;;;;5084363;28;20028;-76
2023/10/07 08:20:12;;;;;;;1.65;0.73;;;12.70;99.90;;;;;;5082666;28;20035;-78
2023/10/07 08:22:51;;;;;;;0.20;0.20;;;15.90;99.90;;;;;;5083110;28;20016;-76
2023/10/07 08:25:38;;;;;;;0.10;0.10;;;14.20;99.90;;;;;;5082338;28;20031;-76
2023/10/07 08:28:41;;;;;;;0.10;0.10;;;13.10;99.90;;;;;;5064280;28;20248;-84
2023/10/07 08:30:53;;;;;;;2.35;1.85;;;13.20;99.90;;;;;;5081461;28;20044;-78
2023/10/07 08:33:24;;;;;;;0.10;0.10;;;13.70;99.90;;;;;;5062533;28;20508;-78
2023/10/07 08:35:51;;;;;;;0.15;0.15;;;13.60;99.90;;;;;;5082965;28;20111;-82
2023/10/07 08:38:23;;;;;;;0.63;0.63;;;13.80;99.90;;;;;;5063001;28;20024;-77
2023/10/07 08:40:59;;;;;;;0.10;0.10;;;13.70;99.90;;;;;;5063990;28;20574;-76
2023/10/07 08:43:32;;;;;;;0.38;0.38;;;13.90;99.90;;;;;;5081312;28;20020;-78
2023/10/07 08:46:01;;;;;;;1.65;1.65;;;14.00;99.90;;;;;;5062431;28;20178;-78
2023/10/07 08:48:30;;;;;;;1.73;1.65;;;14.20;99.90;;;;;;5080845;28;20129;-76
2023/10/07 08:50:58;;;;;;;0.20;0.20;;;14.20;99.90;;;;;;5080977;28;20028;-77
2023/10/07 08:53:25;;;;;;;0.10;0.10;;;14.40;99.90;;;;;;5081448;28;20517;-79
2023/10/07 08:55:57;;;;;;;0.20;0.20;;;14.60;99.90;;;;;;5081184;28;20039;-79
2023/10/07 08:58:31;;;;;;;0.77;0.77;;;14.50;99.90;;;;;;5080839;28;20024;-81
2023/10/07 09:00:58;;;;;;;0.10;0.10;;;14.70;99.90;;;;;;5062294;28;20185;-77
2023/10/07 09:03:28;;;;;;;0.10;0.10;;;14.70;99.90;;;;;;5080484;28;20016;-82
2023/10/07 09:05:59;;;;;;;1.08;1.08;;;14.90;99.90;;;;;;5081040;28;20020;-79
2023/10/07 09:08:25;;;;;;;0.20;0.20;;;15.00;99.90;;;;;;5081399;28;20047;-79
2023/10/07 09:10:55;;;;;;;2.80;2.25;;;15.20;99.90;;;;;;5062144;28;20266;-76
2023/10/07 09:13:27;;;;;;;0.20;0.20;;;15.70;99.90;;;;;;5062727;28;20028;-76
2023/10/07 09:15:54;;;;;;;0.40;0.40;;;15.60;99.90;;;;;;5080889;28;20233;-80
2023/10/07 09:18:28;;;;;;;0.20;0.20;;;15.90;99.90;;;;;;5062516;28;20054;-76
2023/10/07 09:20:56;;;;;;;6.00;5.57;;;16.10;99.90;;;;;;5080346;28;20016;-74
2023/10/07 09:23:33;;;;;;;0.10;0.10;;;16.20;99.90;;;;;;5080792;28;20032;-76
2023/10/07 09:26:17;;;;;;;0.10;0.10;;;16.60;99.90;;;;;;5081471;28;20484;-77
2023/10/07 09:28:58;;;;;;;0.10;0.10;;;16.40;99.90;;;;;;5061861;28;20425;-75
2023/10/07 09:31:32;;;;;;;0.10;0.10;;;16.40;99.90;;;;;;5061602;28;20040;-81
2023/10/07 09:34:09;;;;;;;0.28;0.28;;;16.20;99.90;;;;;;5063465;28;20143;-84
2023/10/07 09:36:46;;;;;;;0.20;0.20;;;16.30;99.90;;;;;;5063456;28;20036;-79
2023/10/07 09:41:39;;;;;;;3.15;3.05;;;17.10;99.90;;;;;;5087170;28;20056;-83
2023/10/07 09:44:28;;;;;;;0.13;0.13;;;14.10;99.90;;;;;;5082736;28;20034;-83
2023/10/07 09:46:55;;;;;;;0.10;0.10;;;16.90;99.90;;;;;;5068022;28;20020;-76
2023/10/07 09:49:22;;;;;;;0.10;0.10;;;16.90;99.90;;;;;;5082900;28;20024;-79
2023/10/07 09:51:52;;;;;;;0.10;0.10;;;17.70;99.90;;;;;;5081214;28;20035;-79
2023/10/07 09:54:47;;;;;;;0.50;0.50;;;17.30;99.90;;;;;;5080255;28;20175;-74
2023/10/07 09:57:42;;;;;;;0.77;0.75;;;14.70;99.90;;;;;;5061728;28;20494;-74
2023/10/07 10:03:05;;;;;;;0.20;0.20;;;17.60;99.90;;;;;;5079904;28;20021;-90
2023/10/07 10:05:58;;;;;;;0.10;0.10;;;17.40;99.90;;;;;;5079515;28;20462;-77
2023/10/07 10:08:55;;;;;;;0.10;0.10;;;17.30;99.90;;;;;;5079802;28;20035;-82
2023/10/07 10:11:44;;;;;;;0.20;0.20;;;17.60;99.90;;;;;;5061533;28;20020;-76
2023/10/07 10:16:54;;;;;;;0.10;0.10;;;17.90;99.90;;;;;;5079528;28;20324;-76
2023/10/07 10:19:49;;;;;;;1.08;1.08;;;18.10;99.90;;;;;;5061342;28;20047;-77
2023/10/07 10:22:24;;;;;;;0.10;0.10;;;18.20;99.90;;;;;;5079889;28;20305;-77
2023/10/07 10:24:59;;;;;;;0.22;0.22;;;18.40;99.90;;;;;;5079707;28;20107;-82
2023/10/07 10:27:26;;;;;;;0.43;0.43;;;18.40;99.90;;;;;;5079929;28;20145;-80
2023/10/07 10:29:52;;;;;;;0.10;0.10;;;18.60;99.90;;;;;;5079548;28;20024;-79
2023/10/07 10:32:34;;;;;;;0.17;0.17;;;18.80;99.90;;;;;;5079039;28;20109;-79
2023/10/07 10:35:06;;;;;;;0.10;0.10;;;19.50;99.90;;;;;;5079597;28;20064;-75
2023/10/07 10:37:32;;;;;;;1.10;1.10;;;19.20;99.90;;;;;;5044939;28;20055;-79
2023/10/07 10:40:12;;;;;;;0.10;0.10;;;19.30;99.90;;;;;;5045490;28;20319;-78
2023/10/07 10:42:43;;;;;;;0.60;0.60;;;19.50;99.50;;;;;;5086538;28;20107;-75
2023/10/07 10:45:19;;;;;;;0.20;0.20;;;19.70;99.50;;;;;;5081747;28;20452;-80
2023/10/07 10:47:52;;;;;;;2.80;2.70;;;19.90;99.60;;;;;;5061259;28;20042;-76
2023/10/07 10:50:19;;;;;;;0.10;0.10;;;20.10;98.90;;;;;;5078642;28;20024;-76
2023/10/07 10:52:49;;;;;;;0.10;0.10;;;20.10;98.10;;;;;;5060448;28;20300;-78
2023/10/07 10:55:19;;;;;;;0.10;0.10;;;20.20;98.10;;;;;;5060536;28;20259;-77
2023/10/07 10:57:45;;;;;;;0.10;0.10;;;20.30;98.60;;;;;;5079172;28;20094;-88
2023/10/07 11:00:22;;;;;;;0.85;0.85;;;20.40;98.20;;;;;;5079481;28;20351;-88
2023/10/07 11:02:53;;;;;;;0.10;0.10;;;20.70;97.60;;;;;;5062636;28;20452;-79
2023/10/07 11:05:21;;;;;;;0.10;0.10;;;20.90;97.70;;;;;;5060010;28;20533;-77
2023/10/07 11:07:49;;;;;;;0.10;0.10;;;21.00;96.60;;;;;;5078489;28;20513;-78
2023/10/07 11:10:20;;;;;;;1.05;1.05;;;21.10;97.10;;;;;;5078584;28;20280;-76
2023/10/07 11:12:51;;;;;;;0.73;0.73;;;21.30;96.10;;;;;;5078572;28;20485;-78
2023/10/07 11:15:24;;;;;;;0.65;0.65;;;22.30;95.90;;;;;;5078711;28;20247;-76
2023/10/07 11:17:58;;;;;;;0.55;0.55;;;21.20;95.60;;;;;;5079378;28;20154;-75
2023/10/07 11:20:32;;;;;;;0.70;0.57;;;21.40;95.10;;;;;;5061178;28;20063;-83
2023/10/07 11:22:58;;;;;;;0.10;0.10;;;21.60;94.90;;;;;;5061094;28;20232;-75
2023/10/07 11:25:27;;;;;;;2.17;0.95;;;21.80;94.40;;;;;;5078727;28;20309;-75
2023/10/07 11:27:54;;;;;;;0.10;0.10;;;21.90;94.20;;;;;;5078817;28;20044;-77
2023/10/07 11:30:21;;;;;;;0.28;0.28;;;21.90;93.50;;;;;;5078792;28;20046;-77
2023/10/07 11:32:47;;;;;;;0.98;0.98;;;22.00;93.90;;;;;;5078382;28;20053;-75
2023/10/07 11:35:19;;;;;;;0.15;0.15;;;22.10;93.90;;;;;;5078317;28;20233;-83
2023/10/07 11:38:05;;;;;;;0.10;0.10;;;22.20;93.80;;;;;;5077750;28;20016;-75
2023/10/07 11:40:32;;;;;;;0.45;0.45;;;22.60;92.70;;;;;;5060764;28;20048;-77
2023/10/07 11:43:04;;;;;;;0.20;0.20;;;22.40;92.70;;;;;;5078577;28;20008;-79
2023/10/07 11:45:31;;;;;;;0.73;0.73;;;22.40;92.50;;;;;;5078228;28;20027;-79
2023/10/07 11:47:57;;;;;;;0.10;0.10;;;22.60;92.80;;;;;;5059863;28;20548;-77
2023/10/07 11:50:27;;;;;;;0.20;0.20;;;22.70;92.00;;;;;;5077826;28;20036;-76
2023/10/07 11:52:53;;;;;;;0.20;0.20;;;23.00;91.90;;;;;;5078248;28;20024;-78
2023/10/07 11:55:20;;;;;;;0.10;0.10;;;23.00;91.80;;;;;;5060854;28;20032;-77
2023/10/07 11:57:45;;;;;;;0.10;0.10;;;20.90;90.70;;;;;;5059524;28;20032;-75
2023/10/07 12:00:29;;;;;;;0.85;0.85;;;23.10;90.60;;;;;;5077830;28;20333;-75
2023/10/07 12:02:58;;;;;;;;;;;23.20;90.50;;;;;;5045653;28;20020;-77
2023/10/07 12:05:27;;;;;;;0.10;0.10;;;23.10;90.80;;;;;;5077482;28;20200;-75
2023/10/07 12:08:01;;;;;;;0.88;0.88;;;23.60;90.50;;;;;;5059318;28;20028;-74
2023/10/07 12:10:36;;;;;;;0.10;0.10;;;23.60;89.40;;;;;;5058741;28;20025;-75
2023/10/07 12:13:03;;;;;;;1.45;1.35;;;23.60;89.00;;;;;;5076966;28;20103;-74
2023/10/07 12:15:31;;;;;;;0.17;0.17;;;23.60;87.80;;;;;;5059118;28;20116;-75
2023/10/07 12:17:58;;;;;;;0.35;0.35;;;23.50;88.80;;;;;;5076857;28;20024;-78
2023/10/07 12:20:23;;;;;;;0.10;0.10;;;23.50;88.10;;;;;;5059136;28;20231;-79
2023/10/07 12:22:49;;;;;;;0.10;0.10;;;23.70;88.10;;;;;;5077472;28;20023;-76
2023/10/07 12:25:16;;;;;;;2.05;1.83;;;23.90;87.10;;;;;;5076750;28;20031;-77
2023/10/07 12:27:49;;;;;;;0.30;0.30;;;24.00;86.40;;;;;;5076940;28;20312;-75
2023/10/07 12:30:22;;;;;;;0.10;0.10;;;22.70;85.40;;;;;;5059845;28;20506;-77
2023/10/07 12:32:51;;;;;;;0.10;0.10;;;23.90;85.00;;;;;;5078262;28;20317;-81
2023/10/07 12:35:18;;;;;;;1.02;1.02;;;24.80;86.10;;;;;;5078264;28;20032;-76
2023/10/07 12:37:47;;;;;;;1.65;1.55;;;25.00;83.40;;;;;;5077399;28;20016;-76
2023/10/07 12:40:14;;;;;;;0.00;0.00;;;25.00;81.70;;;;;;5078729;28;20145;-77
2023/10/07 12:42:45;;;;;;;1.73;0.57;;;25.30;81.60;;;;;;5064355;28;20024;-79
2023/10/07 12:45:11;;;;;;;0.38;0.38;;;26.00;81.60;;;;;;5078631;28;20028;-75
2023/10/07 12:47:39;;;;;;;0.63;0.63;;;25.40;81.20;;;;;;5077779;28;20033;-75
2023/10/07 12:50:23;;;;;;;0.10;0.10;;;25.50;79.30;;;;;;5077492;28;20099;-75
2023/10/07 12:52:54;;;;;;;0.10;0.10;;;25.60;79.10;;;;;;5076710;28;20023;-74
2023/10/07 12:55:21;;;;;;;0.93;0.85;;;25.90;77.10;;;;;;5078602;28;20111;-76
2023/10/07 12:57:50;;;;;;;0.40;0.25;;;26.10;75.80;;;;;;5048839;28;20044;-77
2023/10/07 13:00:28;;;;;;;0.10;0.10;;;23.90;72.00;;;;;;5069514;28;20686;-76
2023/10/07 13:02:57;;;;;;;0.50;0.50;;;26.00;72.80;;;;;;5082339;28;20016;-75
2023/10/07 13:05:32;;;;;;;0.10;0.10;;;26.40;75.10;;;;;;5048165;28;20518;-74
2023/10/07 13:07:58;;;;;;;0.30;0.30;;;26.60;71.50;;;;;;5063430;28;20035;-76
2023/10/07 13:10:26;;;;;;;0.32;0.25;;;26.70;69.70;;;;;;5062061;28;20020;-75
2023/10/07 13:12:55;;;;;;;0.28;0.28;;;26.80;69.50;;;;;;5080679;28;20020;-74
2023/10/07 13:15:30;;;;;;;0.10;0.10;;;;;;;;;;5063126;28;20384;-76
2023/10/07 13:18:08;;;;;;;0.43;0.40;;;27.10;68.10;;;;;;5081106;28;20459;-75
2023/10/07 13:20:34;;;;;;;0.03;0.03;;;27.20;67.10;;;;;;5061960;28;20083;-80
2023/10/07 13:23:01;;;;;;;0.25;0.22;;;27.40;66.60;;;;;;5081248;28;20517;-78
2023/10/07 13:25:27;;;;;;;0.82;0.57;;;27.20;67.70;;;;;;5080671;28;20017;-81
2023/10/07 13:27:58;;;;;;;2.47;0.45;;;27.50;66.20;;;;;;5080754;28;20106;-77
2023/10/07 13:30:24;;;;;;;0.60;0.50;;;27.00;66.10;;;;;;5062998;28;20421;-77
2023/10/07 13:32:53;;;;;;;0.10;0.10;;;27.30;65.80;;;;;;5081827;28;20020;-78
2023/10/07 13:35:20;;;;;;;0.25;0.25;;;;;;;;;;5062962;28;20096;-88
2023/10/07 13:37:49;;;;;;;0.17;0.17;;;27.50;63.80;;;;;;5063137;28;20115;-82
2023/10/07 13:40:16;;;;;;;0.10;0.10;;;27.30;63.90;;;;;;5080522;28;20450;-75
2023/10/07 13:42:52;;;;;;;0.08;0.08;;;27.60;64.30;;;;;;5062403;28;20028;-76
2023/10/07 13:45:24;;;;;;;0.88;0.80;;;27.80;63.50;;;;;;5061919;28;20024;-78
2023/10/07 13:47:51;;;;;;;3.67;2.88;;;28.10;64.20;;;;;;5061954;28;20027;-77
2023/10/07 13:50:25;;;;;;;0.13;0.13;;;28.50;62.60;;;;;;5061794;28;20047;-80
2023/10/07 13:53:11;;;;;;;0.63;0.63;;;28.70;61.40;;;;;;5080715;28;20012;-80
2023/10/07 13:58:09;;;;;;;0.38;0.38;;;28.70;62.60;;;;;;5080421;28;20112;-85
2023/10/07 14:00:36;;;;;;;0.60;0.25;;;28.50;62.30;;;;;;5080389;28;20035;-76
2023/10/07 14:03:19;;;;;;;0.10;0.10;;;31.90;64.70;;;;;;5061916;28;20031;-81
2023/10/07 14:05:49;;;;;;;0.60;0.60;;;28.50;61.20;;;;;;5060125;28;20455;-77
2023/10/07 14:08:16;;;;;;;0.08;0.08;;;28.30;61.80;;;;;;5059900;28;20032;-77
2023/10/07 14:10:52;;;;;;;0.10;0.10;;;28.00;62.60;;;;;;5079168;28;20028;-79
2023/10/07 14:13:24;;;;;;;0.75;0.75;;;28.50;62.60;;;;;;5078613;28;20024;-76
2023/10/07 14:15:51;;;;;;;1.17;0.52;;;28.00;63.40;;;;;;5078634;28;20032;-75
2023/10/07 14:18:21;;;;;;;0.20;0.20;;;28.10;62.20;;;;;;5078577;28;20028;-76
2023/10/07 14:20:57;;;;;;;1.63;1.45;;;28.00;62.50;;;;;;5060681;28;20085;-82
2023/10/07 14:23:27;;;;;;;0.43;0.43;;;28.20;62.90;;;;;;5078781;28;20232;-76
2023/10/07 14:25:54;;;;;;;0.20;0.20;;;28.40;63.60;;;;;;5079216;28;20523;-77
2023/10/07 14:28:21;;;;;;;0.25;0.20;;;28.50;63.20;;;;;;5078439;28;20720;-76